Terminal Aerodrome Forecast
Issued by NWS

Home | Current Version | Previous Version | Text Only | Print | Product List | Glossary On
Versions: 1 2 3 4 5 6 7 8 9 10 11 12
318
FTUS46 KPDT 231721
TAFALW
TAF
KALW 231721Z 2318/2418 VRB03KT P6SM SKC
     FM232000 36007KT P6SM SKC
     FM240500 11006KT P6SM SKC
     FM241500 VRB03KT P6SM SKC=

USA.gov is the U.S. government's official web portal to all federal, state and local government web resources and services.